createdAt,value
2016-11-07T00:00:14.573Z,82.92
2016-11-07T00:01:23.286Z,82.82
2016-11-07T00:02:31.968Z,82.54
2016-11-07T00:03:40.658Z,83.86
2016-11-07T00:04:49.339Z,83.76
2016-11-07T00:05:58.025Z,83.86
2016-11-07T00:07:06.718Z,83.01
2016-11-07T00:08:15.401Z,83.48
2016-11-07T00:09:24.086Z,83.58
2016-11-07T00:10:32.768Z,82.67
2016-11-07T00:11:41.489Z,79.94
2016-11-07T00:12:50.174Z,78.71
2016-11-07T00:13:58.869Z,78.34
2016-11-07T00:15:07.561Z,77.64
2016-11-07T00:16:16.254Z,78.2
2016-11-07T00:17:24.937Z,77.55
2016-11-07T00:18:33.622Z,78.58
2016-11-07T00:19:42.305Z,78.39
2016-11-07T00:20:50.992Z,78.77
2016-11-07T00:21:59.673Z,78.96
2016-11-07T00:23:08.354Z,78.77
2016-11-07T00:24:17.038Z,78.58
2016-11-07T00:25:25.757Z,78.11
2016-11-07T00:26:34.447Z,78.49
2016-11-07T00:27:43.130Z,78.58
2016-11-07T00:28:51.816Z,78.58
2016-11-07T00:30:00.843Z,78.86
2016-11-07T00:31:09.531Z,78.96
2016-11-07T00:32:18.211Z,78.67
2016-11-07T00:33:26.896Z,78.58
2016-11-07T00:34:35.583Z,78.77
2016-11-07T00:35:44.274Z,79.61
2016-11-07T00:36:52.957Z,80.27
2016-11-07T00:38:01.647Z,80.65
2016-11-07T00:39:10.330Z,79.8
2016-11-07T00:40:19.017Z,79.33
2016-11-07T00:41:27.704Z,79.61
2016-11-07T00:42:36.386Z,79.8
2016-11-07T00:43:45.152Z,80.08
2016-11-07T00:44:53.863Z,79.52
2016-11-07T00:46:02.556Z,79.43
2016-11-07T00:47:11.244Z,78.96
2016-11-07T00:48:19.928Z,79.05
2016-11-07T00:49:28.648Z,79.14
2016-11-07T00:50:37.336Z,78.86
2016-11-07T00:51:46.025Z,78.77
2016-11-07T00:52:54.707Z,79.33
2016-11-07T00:54:03.395Z,79.52
2016-11-07T00:55:12.080Z,79.61
2016-11-07T00:56:20.762Z,79.33
2016-11-07T00:57:29.454Z,79.9
2016-11-07T00:58:38.168Z,81.69
2016-11-07T00:59:46.885Z,81.12
2016-11-07T01:00:55.569Z,83.48
2016-11-07T01:02:04.253Z,84.61
2016-11-07T01:03:12.934Z,82.35
2016-11-07T01:04:21.620Z,81.12
2016-11-07T01:05:30.306Z,81.03
2016-11-07T01:06:38.991Z,81.22
2016-11-07T01:07:47.675Z,81.31
2016-11-07T01:08:56.359Z,78.58
2016-11-07T01:10:05.053Z,77.64
2016-11-07T01:11:13.765Z,79.52
2016-11-07T01:12:22.651Z,79.24
2016-11-07T01:13:31.339Z,77.64
2016-11-07T01:14:40.026Z,79.52
2016-11-07T01:15:48.712Z,81.41
2016-11-07T01:16:57.395Z,80.37
2016-11-07T01:18:06.081Z,79.99
2016-11-07T01:19:14.780Z,79.52
2016-11-07T01:20:23.462Z,79.43
2016-11-07T01:21:32.150Z,79.43
2016-11-07T01:22:40.851Z,79.43
2016-11-07T01:23:49.534Z,79.71
2016-11-07T01:24:58.219Z,79.8
2016-11-07T01:26:06.903Z,79.71
2016-11-07T01:27:15.593Z,79.61
2016-11-07T01:28:24.274Z,79.33
2016-11-07T01:29:32.993Z,79.71
2016-11-07T01:30:41.674Z,79.61
2016-11-07T01:31:50.358Z,79.71
2016-11-07T01:32:59.041Z,79.61
2016-11-07T01:34:08.039Z,79.43
2016-11-07T01:35:16.729Z,79.99
2016-11-07T01:36:25.408Z,79.52
2016-11-07T01:37:34.099Z,79.71
2016-11-07T01:38:42.786Z,79.14
2016-11-07T01:39:51.468Z,79.9
2016-11-07T01:41:00.152Z,79.14
2016-11-07T01:42:08.834Z,79.8
2016-11-07T01:43:17.535Z,80.65
2016-11-07T01:44:26.229Z,79.9
2016-11-07T01:45:34.917Z,79.9
2016-11-07T01:46:43.603Z,80.46
2016-11-07T01:47:52.285Z,80.18
2016-11-07T01:49:00.967Z,79.9
2016-11-07T01:50:09.652Z,80.08
2016-11-07T01:51:18.364Z,79.9
2016-11-07T01:52:27.050Z,81.31
2016-11-07T01:53:35.737Z,80.27
2016-11-07T01:54:44.737Z,79.52
2016-11-07T01:55:53.463Z,79.71
2016-11-07T01:57:02.154Z,79.61
2016-11-07T01:58:10.840Z,79.24
2016-11-07T01:59:19.529Z,79.05
2016-11-07T02:00:28.211Z,78.96
2016-11-07T02:01:36.903Z,79.24
2016-11-07T02:02:45.586Z,79.24
2016-11-07T02:03:54.266Z,79.52
2016-11-07T02:05:02.982Z,79.8
2016-11-07T02:06:11.661Z,79.99
2016-11-07T02:07:20.347Z,80.93
2016-11-07T02:08:29.030Z,80.46
2016-11-07T02:09:37.712Z,81.22
2016-11-07T02:10:46.391Z,80.18
2016-11-07T02:11:55.069Z,79.8
2016-11-07T02:13:04.395Z,79.29
2016-11-07T02:14:13.077Z,79.48
2016-11-07T02:15:21.763Z,79.76
2016-11-07T02:16:30.451Z,79.67
2016-11-07T02:17:39.486Z,80.42
2016-11-07T02:18:48.169Z,80.24
2016-11-07T02:19:56.851Z,80.33
2016-11-07T02:21:05.846Z,80.61
2016-11-07T02:22:14.542Z,80.24
2016-11-07T02:23:23.254Z,79.71
2016-11-07T02:24:31.941Z,79.52
2016-11-07T02:25:40.626Z,79.43
2016-11-07T02:26:49.309Z,79.76
2016-11-07T02:27:57.999Z,79.61
2016-11-07T02:29:06.693Z,79.43
2016-11-07T02:30:15.375Z,79.29
2016-11-07T02:31:24.063Z,79.14
2016-11-07T02:32:33.093Z,79.8
2016-11-07T02:33:41.775Z,79.9
2016-11-07T02:34:50.459Z,79.24
2016-11-07T02:35:59.141Z,79.14
2016-11-07T02:37:07.826Z,79.9
2016-11-07T02:38:16.513Z,79.43
2016-11-07T02:39:25.194Z,79.71
2016-11-07T02:40:33.875Z,79.8
2016-11-07T02:41:42.561Z,79.61
2016-11-07T02:42:51.247Z,79.61
2016-11-07T02:43:59.930Z,79.61
2016-11-07T02:45:08.930Z,79.8
2016-11-07T02:46:17.617Z,79.61
2016-11-07T02:47:26.349Z,80.93
2016-11-07T02:48:35.031Z,83.91
2016-11-07T02:49:43.731Z,82.16
2016-11-07T02:50:52.414Z,80.46
2016-11-07T02:52:01.092Z,81.5
2016-11-07T02:53:09.774Z,80.8
2016-11-07T02:54:18.480Z,81.46
2016-11-07T02:55:27.213Z,81.27
2016-11-07T02:56:35.897Z,83.44
2016-11-07T02:57:44.616Z,83.44
2016-11-07T02:58:53.302Z,82.31
2016-11-07T03:00:01.985Z,83.25
2016-11-07T03:01:10.679Z,84.94
2016-11-07T03:02:19.364Z,85.98
2016-11-07T03:03:28.045Z,85.98
2016-11-07T03:04:36.733Z,86.54
2016-11-07T03:05:45.417Z,83.44
2016-11-07T03:06:54.101Z,82.31
2016-11-07T03:08:02.785Z,82.5
2016-11-07T03:09:11.464Z,81.65
2016-11-07T03:10:20.152Z,81.46
2016-11-07T03:11:28.867Z,81.5
2016-11-07T03:12:37.544Z,81.22
2016-11-07T03:13:46.232Z,81.03
2016-11-07T03:14:54.937Z,81.18
2016-11-07T03:16:03.660Z,83.62
2016-11-07T03:17:12.347Z,82.59
2016-11-07T03:18:21.129Z,84.09
2016-11-07T03:19:29.848Z,86.26
2016-11-07T03:20:38.527Z,87.11
2016-11-07T03:21:47.205Z,87.06
2016-11-07T03:22:55.887Z,86.59
2016-11-07T03:24:04.572Z,86.11
2016-11-07T03:25:13.256Z,85.46
2016-11-07T03:26:21.941Z,86.77
2016-11-07T03:27:30.631Z,86.87
2016-11-07T03:28:39.313Z,84.42
2016-11-07T03:29:48.030Z,83.76
2016-11-07T03:30:56.713Z,82.92
2016-11-07T03:32:05.715Z,82.82
2016-11-07T03:33:14.401Z,83.2
2016-11-07T03:34:23.088Z,82.54
2016-11-07T03:35:31.771Z,83.81
2016-11-07T03:36:40.457Z,83.62
2016-11-07T03:37:49.176Z,84.38
2016-11-07T03:38:57.855Z,84.19
2016-11-07T03:40:06.543Z,84.52
2016-11-07T03:41:15.260Z,84.14
2016-11-07T03:42:23.987Z,83.48
2016-11-07T03:43:32.674Z,82.82
2016-11-07T03:44:41.361Z,82.25
2016-11-07T03:45:50.041Z,82.07
2016-11-07T03:46:58.724Z,81.41
2016-11-07T03:48:07.408Z,81.5
2016-11-07T03:49:16.093Z,81.59
2016-11-07T03:50:24.782Z,81.78
2016-11-07T03:51:33.490Z,81.41
2016-11-07T03:52:42.172Z,81.69
2016-11-07T03:53:50.863Z,81.5
2016-11-07T03:54:59.556Z,81.03
2016-11-07T03:56:08.238Z,80.65
2016-11-07T03:57:16.917Z,80.27
2016-11-07T03:58:25.600Z,80.08
2016-11-07T03:59:34.282Z,80.56
2016-11-07T04:00:42.963Z,80.56
2016-11-07T04:01:51.652Z,81.03
2016-11-07T04:03:00.332Z,82.44
2016-11-07T04:04:09.014Z,82.73
2016-11-07T04:05:17.699Z,82.82
2016-11-07T04:06:26.383Z,84.14
2016-11-07T04:07:35.073Z,82.92
2016-11-07T04:08:43.754Z,83.53
2016-11-07T04:09:52.444Z,85.41
2016-11-07T04:11:01.128Z,86.64
2016-11-07T04:12:09.814Z,86.64
2016-11-07T04:13:18.507Z,85.64
2016-11-07T04:14:27.187Z,84.85
2016-11-07T04:15:35.870Z,84.85
2016-11-07T04:16:44.557Z,85.04
2016-11-07T04:17:53.241Z,86.26
2016-11-07T04:19:01.927Z,86.83
2016-11-07T04:20:10.928Z,87.02
2016-11-07T04:21:19.610Z,85.88
2016-11-07T04:22:28.296Z,86.96
2016-11-07T04:23:36.978Z,87.34
2016-11-07T04:24:45.662Z,85.55
2016-11-07T04:25:54.350Z,85.93
2016-11-07T04:27:03.031Z,85.55
2016-11-07T04:28:11.721Z,86.3
2016-11-07T04:29:20.401Z,85.93
2016-11-07T04:30:29.087Z,86.3
2016-11-07T04:31:37.785Z,86.96
2016-11-07T04:32:46.470Z,86.4
2016-11-07T04:33:55.150Z,85.74
2016-11-07T04:35:03.841Z,85.36
2016-11-07T04:36:12.528Z,84.7
2016-11-07T04:37:21.212Z,84.89
2016-11-07T04:38:31.673Z,85.08
2016-11-07T04:39:40.358Z,85.83
2016-11-07T04:40:49.391Z,84.52
2016-11-07T04:41:58.084Z,83.67
2016-11-07T04:43:06.768Z,83.39
2016-11-07T04:44:15.500Z,82.92
2016-11-07T04:45:24.184Z,83.2
2016-11-07T04:46:32.862Z,83.76
2016-11-07T04:47:41.545Z,83.86
2016-11-07T04:48:50.231Z,83.48
2016-11-07T04:49:58.961Z,83.95
2016-11-07T04:51:07.645Z,83.76
2016-11-07T04:52:16.327Z,82.16
2016-11-07T04:53:25.011Z,82.73
2016-11-07T04:54:33.693Z,83.01
2016-11-07T04:55:42.665Z,82.92
2016-11-07T04:56:51.354Z,82.73
2016-11-07T04:58:00.064Z,82.82
2016-11-07T04:59:08.759Z,82.35
2016-11-07T05:00:17.442Z,81.69
2016-11-07T05:01:26.224Z,81.78
2016-11-07T05:02:34.903Z,82.07
2016-11-07T05:03:43.592Z,81.41
2016-11-07T05:04:52.275Z,81.12
2016-11-07T05:06:00.960Z,80.65
2016-11-07T05:07:09.693Z,80.74
2016-11-07T05:08:18.375Z,81.5
2016-11-07T05:09:27.066Z,81.03
2016-11-07T05:10:36.067Z,81.31
2016-11-07T05:11:44.751Z,81.59
2016-11-07T05:12:53.484Z,81.31
2016-11-07T05:14:02.167Z,81.12
2016-11-07T05:15:10.852Z,81.88
2016-11-07T05:16:19.576Z,81.31
2016-11-07T05:17:28.264Z,81.31
2016-11-07T05:18:37.001Z,83.48
2016-11-07T05:19:45.684Z,82.63
2016-11-07T05:20:54.367Z,82.07
2016-11-07T05:22:03.091Z,81.69
2016-11-07T05:23:11.775Z,80.93
2016-11-07T05:24:20.506Z,81.69
2016-11-07T05:25:29.190Z,81.31
2016-11-07T05:26:37.875Z,81.97
2016-11-07T05:27:46.554Z,82.44
2016-11-07T05:28:55.276Z,81.5
2016-11-07T05:30:04.008Z,80.46
2016-11-07T05:31:12.692Z,80.84
2016-11-07T05:32:21.376Z,80.18
2016-11-07T05:33:30.372Z,80.37
2016-11-07T05:34:39.057Z,81.5
2016-11-07T05:35:47.791Z,81.69
2016-11-07T05:36:56.477Z,81.59
2016-11-07T05:38:05.190Z,80.74
2016-11-07T05:39:13.882Z,80.84
2016-11-07T05:40:22.570Z,81.78
2016-11-07T05:41:31.302Z,82.07
2016-11-07T05:42:39.992Z,81.88
2016-11-07T05:43:48.675Z,81.22
2016-11-07T05:44:57.397Z,81.03
2016-11-07T05:46:06.079Z,80.18
2016-11-07T05:47:14.765Z,79.8
2016-11-07T05:48:23.444Z,79.43
2016-11-07T05:49:32.135Z,79.9
2016-11-07T05:50:40.819Z,79.61
2016-11-07T05:51:49.502Z,79.52
2016-11-07T05:52:58.183Z,79.9
2016-11-07T05:54:06.866Z,79.99
2016-11-07T05:55:15.546Z,80.84
2016-11-07T05:56:24.226Z,82.82
2016-11-07T05:57:32.907Z,83.86
2016-11-07T05:58:41.592Z,83.67
2016-11-07T05:59:50.275Z,81.59
2016-11-07T06:00:58.953Z,80.37
2016-11-07T06:02:07.637Z,81.5
2016-11-07T06:03:16.318Z,82.63
2016-11-07T06:04:25.003Z,82.25
2016-11-07T06:05:33.688Z,82.25
2016-11-07T06:06:42.683Z,83.53
2016-11-07T06:07:51.362Z,82.78
2016-11-07T06:09:00.049Z,80.9
2016-11-07T06:10:08.764Z,80.71
2016-11-07T06:11:17.449Z,80.24
2016-11-07T06:12:26.128Z,81.08
2016-11-07T06:13:34.809Z,81.56
2016-11-07T06:14:43.496Z,81.56
2016-11-07T06:15:52.185Z,81.74
2016-11-07T06:17:00.870Z,81.46
2016-11-07T06:18:09.557Z,81.08
2016-11-07T06:19:18.238Z,81.08
2016-11-07T06:20:26.923Z,80.14
2016-11-07T06:21:35.604Z,80.99
2016-11-07T06:22:44.285Z,82.59
2016-11-07T06:23:52.979Z,84.42
2016-11-07T06:25:01.659Z,84.42
2016-11-07T06:26:10.343Z,82.73
2016-11-07T06:27:19.023Z,80.37
2016-11-07T06:28:27.741Z,79.86
2016-11-07T06:29:36.421Z,79.86
2016-11-07T06:30:45.102Z,79.67
2016-11-07T06:31:53.781Z,79.86
2016-11-07T06:33:02.771Z,79.58
2016-11-07T06:34:11.486Z,79.48
2016-11-07T06:35:20.173Z,79.58
2016-11-07T06:36:28.856Z,79.76
2016-11-07T06:37:37.540Z,79.67
2016-11-07T06:38:46.221Z,79.86
2016-11-07T06:39:54.900Z,79.76
2016-11-07T06:41:03.642Z,80.42
2016-11-07T06:42:12.326Z,80.42
2016-11-07T06:43:21.009Z,80.05
2016-11-07T06:44:29.701Z,79.95
2016-11-07T06:45:38.394Z,79.39
2016-11-07T06:46:47.111Z,79.29
2016-11-07T06:47:55.790Z,79.76
2016-11-07T06:49:04.470Z,79.58
2016-11-07T06:50:13.175Z,80.05
2016-11-07T06:51:22.179Z,79.86
2016-11-07T06:52:30.865Z,79.58
2016-11-07T06:53:39.542Z,79.29
2016-11-07T06:54:48.264Z,79.76
2016-11-07T06:55:56.950Z,80.71
2016-11-07T06:57:05.630Z,80.14
2016-11-07T06:58:14.342Z,79.76
2016-11-07T06:59:23.023Z,79.58
2016-11-07T07:00:31.705Z,79.1
2016-11-07T07:01:40.390Z,79.29
2016-11-07T07:02:49.076Z,78.92
2016-11-07T07:03:57.754Z,78.92
2016-11-07T07:05:06.434Z,79.2
2016-11-07T07:06:15.119Z,78.92
2016-11-07T07:07:23.804Z,78.44
2016-11-07T07:08:32.491Z,78.44
2016-11-07T07:09:41.179Z,79.39
2016-11-07T07:10:49.861Z,79.48
2016-11-07T07:11:58.545Z,79.2
2016-11-07T07:13:07.229Z,78.54
2016-11-07T07:14:15.916Z,79.86
2016-11-07T07:15:24.601Z,80.99
2016-11-07T07:16:33.320Z,79.95
2016-11-07T07:17:42.005Z,80.05
2016-11-07T07:18:50.690Z,81.08
2016-11-07T07:19:59.374Z,80.05
2016-11-07T07:21:08.065Z,79.67
2016-11-07T07:22:16.749Z,79.1
2016-11-07T07:23:25.432Z,78.82
2016-11-07T07:24:34.112Z,79.01
2016-11-07T07:25:42.795Z,79.39
2016-11-07T07:26:51.478Z,79.76
2016-11-07T07:28:00.161Z,79.67
2016-11-07T07:29:08.843Z,79.86
2016-11-07T07:30:17.565Z,79.86
2016-11-07T07:31:26.246Z,80.42
2016-11-07T07:32:34.935Z,80.61
2016-11-07T07:33:43.931Z,81.03
2016-11-07T07:34:52.613Z,79.61
2016-11-07T07:36:01.301Z,78.86
2016-11-07T07:37:09.981Z,79.61
2016-11-07T07:38:18.674Z,79.33
2016-11-07T07:39:27.358Z,79.9
2016-11-07T07:40:36.043Z,79.8
2016-11-07T07:41:44.757Z,79.8
2016-11-07T07:42:53.441Z,80.37
2016-11-07T07:44:02.125Z,79.61
2016-11-07T07:45:10.806Z,79.52
2016-11-07T07:46:19.486Z,78.67
2016-11-07T07:47:28.166Z,78.11
2016-11-07T07:48:36.843Z,76.32
2016-11-07T07:49:45.529Z,76.04
2016-11-07T07:50:54.205Z,76.13
2016-11-07T07:52:03.196Z,76.22
2016-11-07T07:53:11.882Z,76.32
2016-11-07T07:54:20.559Z,76.79
2016-11-07T07:55:29.247Z,76.98
2016-11-07T07:56:37.929Z,76.79
2016-11-07T07:57:46.613Z,76.51
2016-11-07T07:58:55.297Z,76.98
2016-11-07T08:00:03.978Z,76.41
2016-11-07T08:01:12.662Z,76.79
2016-11-07T08:02:21.378Z,76.98
2016-11-07T08:03:30.060Z,76.04
2016-11-07T08:04:38.752Z,75.47
2016-11-07T08:05:47.434Z,75.66
2016-11-07T08:06:56.118Z,75.56
2016-11-07T08:08:04.855Z,75
2016-11-07T08:09:13.549Z,74.62
2016-11-07T08:10:22.245Z,74.9
2016-11-07T08:11:30.982Z,75.66
2016-11-07T08:12:39.989Z,75.47
2016-11-07T08:13:48.697Z,74.9
2016-11-07T08:14:57.401Z,75
2016-11-07T08:16:06.102Z,75
2016-11-07T08:17:14.812Z,75.09
2016-11-07T08:18:23.956Z,75
2016-11-07T08:19:32.640Z,75
2016-11-07T08:20:41.325Z,74.43
2016-11-07T08:21:50.043Z,74.71
2016-11-07T08:22:58.726Z,74.05
2016-11-07T08:24:07.408Z,74.34
2016-11-07T08:25:16.089Z,74.24
2016-11-07T08:26:24.775Z,74.34
2016-11-07T08:27:33.458Z,74.05
2016-11-07T08:28:42.138Z,74.9
2016-11-07T08:29:50.817Z,74.71
2016-11-07T08:30:59.818Z,74.9
2016-11-07T08:32:08.498Z,74.71
2016-11-07T08:33:17.240Z,74.34
2016-11-07T08:34:25.926Z,74.9
2016-11-07T08:35:34.617Z,75.09
2016-11-07T08:36:43.300Z,74.81
2016-11-07T08:37:51.985Z,75.38
2016-11-07T08:39:00.667Z,75.56
2016-11-07T08:40:09.347Z,76.04
2016-11-07T08:41:18.030Z,76.32
2016-11-07T08:42:26.719Z,76.41
2016-11-07T08:43:35.406Z,75.75
2016-11-07T08:44:44.086Z,76.89
2016-11-07T08:45:52.773Z,76.41
2016-11-07T08:47:01.454Z,75.47
2016-11-07T08:48:10.140Z,75.47
2016-11-07T08:49:19.158Z,75.66
2016-11-07T08:50:27.844Z,75.47
2016-11-07T08:51:36.536Z,75.47
2016-11-07T08:52:45.223Z,75.38
2016-11-07T08:53:53.911Z,76.32
2016-11-07T08:55:02.596Z,76.41
2016-11-07T08:56:11.281Z,76.13
2016-11-07T08:57:19.964Z,76.22
2016-11-07T08:58:28.652Z,76.22
2016-11-07T08:59:37.334Z,75.56
2016-11-07T09:00:46.025Z,75.85
2016-11-07T09:01:54.712Z,74.81
2016-11-07T09:03:03.403Z,75.28
2016-11-07T09:04:12.092Z,74.38
2016-11-07T09:05:20.774Z,73.53
2016-11-07T09:06:29.461Z,73.62
2016-11-07T09:07:38.144Z,74
2016-11-07T09:08:46.831Z,73.72
2016-11-07T09:09:55.517Z,73.81
2016-11-07T09:11:04.209Z,73.43
2016-11-07T09:12:12.892Z,73.68
2016-11-07T09:13:21.576Z,74.62
2016-11-07T09:14:30.263Z,74.81
2016-11-07T09:15:38.978Z,74.71
2016-11-07T09:16:47.664Z,75.19
2016-11-07T09:17:56.391Z,75.09
2016-11-07T09:19:05.080Z,75
2016-11-07T09:20:13.763Z,74.81
2016-11-07T09:21:22.455Z,75
2016-11-07T09:22:31.142Z,75.47
2016-11-07T09:23:39.825Z,74.53
2016-11-07T09:24:48.514Z,74.28
2016-11-07T09:25:57.199Z,73.87
2016-11-07T09:27:05.881Z,73.39
2016-11-07T09:28:14.602Z,73.68
2016-11-07T09:29:23.282Z,73.87
2016-11-07T09:30:31.965Z,74.62
2016-11-07T09:31:40.651Z,74.62
2016-11-07T09:32:49.334Z,74.9
2016-11-07T09:33:58.050Z,75.19
2016-11-07T09:35:06.743Z,75.19
2016-11-07T09:36:15.422Z,74.53
2016-11-07T09:37:24.103Z,73.68
2016-11-07T09:38:32.786Z,73.15
2016-11-07T09:39:41.466Z,72.77
2016-11-07T09:40:50.145Z,72.02
2016-11-07T09:41:58.825Z,71.92
2016-11-07T09:43:07.826Z,71.45
2016-11-07T09:44:16.508Z,70.79
2016-11-07T09:45:25.196Z,70.89
2016-11-07T09:46:33.877Z,70.51
2016-11-07T09:47:42.706Z,69.85
2016-11-07T09:48:51.432Z,69.85
2016-11-07T09:50:00.115Z,69.85
2016-11-07T09:51:08.797Z,69.1
2016-11-07T09:52:17.698Z,69.29
2016-11-07T09:53:26.384Z,69.38
2016-11-07T09:54:35.067Z,69.19
2016-11-07T09:55:43.748Z,69.1
2016-11-07T09:56:52.449Z,69.19
2016-11-07T09:58:01.133Z,69.19
2016-11-07T09:59:09.829Z,69.19
2016-11-07T10:00:18.551Z,69
2016-11-07T10:01:27.251Z,69.29
2016-11-07T10:02:35.930Z,68.44
2016-11-07T10:03:44.611Z,68.34
2016-11-07T10:04:53.325Z,67.68
2016-11-07T10:06:02.009Z,67.78
2016-11-07T10:07:10.689Z,68.06
2016-11-07T10:08:19.369Z,68.44
2016-11-07T10:09:28.068Z,68.34
2016-11-07T10:10:36.756Z,67.49
2016-11-07T10:11:45.482Z,68.15
2016-11-07T10:12:54.163Z,67.68
2016-11-07T10:14:02.849Z,67.49
2016-11-07T10:15:11.532Z,68.06
2016-11-07T10:16:20.215Z,68.06
2016-11-07T10:17:28.898Z,68.25
2016-11-07T10:18:37.586Z,68.25
2016-11-07T10:19:46.282Z,68.06
2016-11-07T10:20:54.974Z,68.82
2016-11-07T10:22:03.691Z,68.72
2016-11-07T10:23:12.385Z,68.91
2016-11-07T10:24:21.068Z,68.72
2016-11-07T10:25:30.084Z,68.72
2016-11-07T10:26:38.771Z,69.38
2016-11-07T10:27:47.492Z,69.1
2016-11-07T10:28:56.207Z,69.19
2016-11-07T10:30:04.905Z,69
2016-11-07T10:31:13.595Z,68.91
2016-11-07T10:32:22.280Z,68.91
2016-11-07T10:33:30.996Z,67.72
2016-11-07T10:34:39.676Z,67.34
2016-11-07T10:35:48.365Z,67.25
2016-11-07T10:36:57.056Z,66.49
2016-11-07T10:38:05.740Z,66.21
2016-11-07T10:39:14.505Z,66.21
2016-11-07T10:40:23.186Z,65.73
2016-11-07T10:41:31.873Z,65.64
2016-11-07T10:42:40.556Z,65.64
2016-11-07T10:43:49.276Z,66.02
2016-11-07T10:44:57.990Z,66.02
2016-11-07T10:46:06.677Z,65.83
2016-11-07T10:47:15.369Z,65.73
2016-11-07T10:48:24.055Z,64.98
2016-11-07T10:49:32.738Z,64.89
2016-11-07T10:50:41.421Z,64.45
2016-11-07T10:51:50.112Z,64.32
2016-11-07T10:52:58.799Z,63.85
2016-11-07T10:54:07.525Z,63.19
2016-11-07T10:55:16.211Z,63.38
2016-11-07T10:56:24.924Z,62.91
2016-11-07T10:57:33.604Z,63.22
2016-11-07T10:58:42.287Z,61.99
2016-11-07T10:59:50.976Z,60.77
2016-11-07T11:00:59.658Z,60.11
2016-11-07T11:02:08.340Z,60.3
2016-11-07T11:03:17.026Z,60.3
2016-11-07T11:04:25.732Z,59.57
2016-11-07T11:05:34.425Z,58.15
2016-11-07T11:06:43.114Z,58.53
2016-11-07T11:07:51.804Z,59.17
2016-11-07T11:09:00.490Z,58.91
2016-11-07T11:10:09.179Z,57.87
2016-11-07T11:11:17.871Z,57.87
2016-11-07T11:12:26.583Z,57.97
2016-11-07T11:13:35.271Z,57.97
2016-11-07T11:14:43.965Z,57.59
2016-11-07T11:15:52.649Z,57.31
2016-11-07T11:17:01.340Z,58.34
2016-11-07T11:18:10.028Z,58.34
2016-11-07T11:19:18.713Z,57.5
2016-11-07T11:20:27.404Z,57.12
2016-11-07T11:21:36.091Z,56.55
2016-11-07T11:22:44.776Z,56.46
2016-11-07T11:23:53.468Z,55.89
2016-11-07T11:25:02.154Z,53.84
2016-11-07T11:26:10.844Z,52.99
2016-11-07T11:27:19.539Z,51.22
2016-11-07T11:28:28.226Z,51.86
2016-11-07T11:29:36.923Z,51.32
2016-11-07T11:30:45.646Z,50.56
2016-11-07T11:31:54.336Z,49.83
2016-11-07T11:33:03.026Z,48.88
2016-11-07T11:34:11.717Z,48.22
2016-11-07T11:35:20.445Z,47.58
2016-11-07T11:36:29.140Z,45.9
2016-11-07T11:37:37.830Z,44.37
2016-11-07T11:38:46.522Z,44.93
2016-11-07T11:39:55.217Z,45.03
2016-11-07T11:41:03.940Z,44.86
2016-11-07T11:42:12.637Z,45.88
2016-11-07T11:43:21.329Z,47.47
2016-11-07T11:44:30.031Z,47.56
2016-11-07T11:45:38.724Z,47.56
2016-11-07T11:46:47.411Z,47.53
2016-11-07T11:47:56.105Z,47.28
2016-11-07T11:49:04.818Z,46.61
2016-11-07T11:50:13.507Z,46.14
2016-11-07T11:51:22.242Z,46.23
2016-11-07T11:52:30.934Z,46.61
2016-11-07T11:53:39.619Z,47.56
2016-11-07T11:54:48.312Z,47.72
2016-11-07T11:55:57.038Z,47.56
2016-11-07T11:57:05.731Z,47.25
2016-11-07T11:58:14.425Z,47.28
2016-11-07T11:59:23.619Z,48.48
2016-11-07T12:00:32.313Z,49.62
2016-11-07T12:01:40.998Z,49.43
2016-11-07T12:02:50.003Z,49.9
2016-11-07T12:03:59.288Z,48.97
2016-11-07T12:05:08.036Z,48.79
2016-11-07T12:06:16.733Z,48.79
2016-11-07T12:07:25.428Z,49.07
2016-11-07T12:08:34.119Z,49.9
2016-11-07T12:09:42.811Z,49.26
2016-11-07T12:10:51.506Z,48.41
2016-11-07T12:12:00.202Z,47.28
2016-11-07T12:13:08.915Z,46.23
2016-11-07T12:14:17.615Z,47.28
2016-11-07T12:15:26.355Z,48.03
2016-11-07T12:16:35.054Z,48.67
2016-11-07T12:17:43.745Z,48.1
2016-11-07T12:18:52.443Z,47.47
2016-11-07T12:20:01.150Z,44.93
2016-11-07T12:21:09.879Z,43.63
2016-11-07T12:22:18.581Z,41.47
2016-11-07T12:23:27.407Z,42.4
2016-11-07T12:24:36.126Z,43.73
2016-11-07T12:25:45.131Z,43.73
2016-11-07T12:26:53.830Z,43.16
2016-11-07T12:28:02.838Z,43.52
2016-11-07T12:29:11.528Z,44.74
2016-11-07T12:30:20.217Z,44.93
2016-11-07T12:31:28.924Z,47.37
2016-11-07T12:32:37.954Z,47.37
2016-11-07T12:33:46.651Z,46.9
2016-11-07T12:34:55.345Z,46.26
2016-11-07T12:36:04.374Z,45.69
2016-11-07T12:37:13.077Z,44.67
2016-11-07T12:38:21.774Z,43.73
2016-11-07T12:39:30.465Z,43.52
2016-11-07T12:40:39.151Z,44.56
2016-11-07T12:41:47.839Z,45.98
2016-11-07T12:42:56.555Z,46.17
2016-11-07T12:44:05.264Z,46.73
2016-11-07T12:45:13.959Z,48.67
2016-11-07T12:46:22.650Z,49.43
2016-11-07T12:47:31.348Z,50.27
2016-11-07T12:48:40.095Z,50.59
2016-11-07T12:49:48.787Z,50.68
2016-11-07T12:50:57.479Z,49.73
2016-11-07T12:52:06.163Z,51.03
2016-11-07T12:53:14.856Z,51.86
2016-11-07T12:54:23.542Z,52.89
2016-11-07T12:55:32.233Z,53.65
2016-11-07T12:56:40.928Z,53.08
2016-11-07T12:57:49.622Z,51.67
2016-11-07T12:58:58.309Z,52.89
2016-11-07T13:00:07.013Z,53.02
2016-11-07T13:01:15.704Z,51.98
2016-11-07T13:02:24.393Z,52.07
2016-11-07T13:03:33.087Z,53.34
2016-11-07T13:04:41.776Z,55.32
2016-11-07T13:05:50.465Z,56.17
2016-11-07T13:06:59.465Z,57.21
2016-11-07T13:08:08.155Z,57.03
2016-11-07T13:09:16.843Z,58.06
2016-11-07T13:10:25.535Z,56.55
2016-11-07T13:11:34.220Z,55.98
2016-11-07T13:12:42.921Z,56.55
2016-11-07T13:13:51.617Z,57.37
2016-11-07T13:15:00.306Z,57.65
2016-11-07T13:16:08.995Z,57.68
2016-11-07T13:17:17.681Z,57.31
2016-11-07T13:18:26.380Z,57.94
2016-11-07T13:19:35.100Z,57.65
2016-11-07T13:20:43.855Z,58.5
2016-11-07T13:21:52.634Z,58.31
2016-11-07T13:23:01.320Z,58.5
2016-11-07T13:24:10.020Z,58.41
2016-11-07T13:25:18.707Z,58.06
2016-11-07T13:26:27.412Z,58.22
2016-11-07T13:27:36.140Z,58.6
2016-11-07T13:28:44.829Z,59.64
2016-11-07T13:29:53.516Z,59.64
2016-11-07T13:31:02.204Z,60.3
2016-11-07T13:32:10.888Z,59.45
2016-11-07T13:33:19.574Z,58.53
2016-11-07T13:34:28.262Z,57.78
2016-11-07T13:35:36.943Z,58.41
2016-11-07T13:36:45.627Z,58.6
2016-11-07T13:37:54.311Z,58.69
2016-11-07T13:39:03.015Z,60.39
2016-11-07T13:40:11.702Z,60.86
2016-11-07T13:41:20.386Z,61.61
2016-11-07T13:42:29.390Z,63
2016-11-07T13:43:38.194Z,64.51
2016-11-07T13:44:46.883Z,64.89
2016-11-07T13:45:55.574Z,65.55
2016-11-07T13:47:04.260Z,64.98
2016-11-07T13:48:12.947Z,64.51
2016-11-07T13:49:21.637Z,65.17
2016-11-07T13:50:30.325Z,66.02
2016-11-07T13:51:39.333Z,66.58
2016-11-07T13:52:48.056Z,66.58
2016-11-07T13:53:56.804Z,66.4
2016-11-07T13:55:05.490Z,64.89
2016-11-07T13:56:14.185Z,64.89
2016-11-07T13:57:22.884Z,65.55
2016-11-07T13:58:31.572Z,66.77
2016-11-07T13:59:40.262Z,66.49
2016-11-07T14:00:48.956Z,65.83
2016-11-07T14:01:57.644Z,66.58
2016-11-07T14:03:06.325Z,66.87
2016-11-07T14:04:15.012Z,67.53
2016-11-07T14:05:23.701Z,66.96
2016-11-07T14:06:32.388Z,67.53
2016-11-07T14:07:41.073Z,67.62
2016-11-07T14:08:49.798Z,67.72
2016-11-07T14:09:58.483Z,67.91
2016-11-07T14:11:07.166Z,68
2016-11-07T14:12:15.889Z,67.91
2016-11-07T14:13:24.608Z,68.38
2016-11-07T14:14:33.292Z,68.57
2016-11-07T14:15:41.984Z,68.47
2016-11-07T14:16:50.672Z,68
2016-11-07T14:17:59.369Z,68
2016-11-07T14:19:08.062Z,67.43
2016-11-07T14:20:16.752Z,67.43
2016-11-07T14:21:25.447Z,67.62
2016-11-07T14:22:34.134Z,68
2016-11-07T14:23:42.820Z,68.38
2016-11-07T14:24:51.501Z,68.66
2016-11-07T14:26:00.184Z,69.23
2016-11-07T14:27:08.874Z,68.85
2016-11-07T14:28:17.563Z,68.95
2016-11-07T14:29:26.256Z,69.13
2016-11-07T14:30:34.942Z,69.04
2016-11-07T14:31:43.649Z,69.13
2016-11-07T14:32:52.332Z,68.57
2016-11-07T14:34:01.017Z,68.1
2016-11-07T14:35:09.709Z,68.44
2016-11-07T14:36:18.423Z,69.67
2016-11-07T14:37:27.147Z,70.51
2016-11-07T14:38:35.832Z,71.64
2016-11-07T14:39:44.514Z,71.92
2016-11-07T14:40:53.197Z,70.61
2016-11-07T14:42:01.888Z,71.17
2016-11-07T14:43:10.661Z,71.08
2016-11-07T14:44:19.352Z,71.08
2016-11-07T14:45:28.079Z,72.21
2016-11-07T14:46:36.762Z,72.77
2016-11-07T14:47:45.480Z,73.15
2016-11-07T14:48:54.165Z,71.73